sensor_id;sensor_type;location;lat;lon;timestamp;P1;durP1;ratioP1;P2;durP2;ratioP2
27436;SDS011;14886;51.586;6.722;2023-08-06T00:03:53;6.0;;;3.3;;
27436;SDS011;14886;51.586;6.722;2023-08-06T00:08:53;7.9;;;3.9;;
27436;SDS011;14886;51.586;6.722;2023-08-06T00:13:53;9.1;;;4.2;;
27436;SDS011;14886;51.586;6.722;2023-08-06T00:18:53;11.8;;;5.2;;
27436;SDS011;14886;51.586;6.722;2023-08-06T00:23:53;9.1;;;4.5;;
27436;SDS011;14886;51.586;6.722;2023-08-06T00:28:52;8.8;;;4.2;;
27436;SDS011;14886;51.586;6.722;2023-08-06T00:33:52;6.2;;;3.3;;
27436;SDS011;14886;51.586;6.722;2023-08-06T00:38:52;5.1;;;3.4;;
27436;SDS011;14886;51.586;6.722;2023-08-06T00:43:52;7.5;;;3.5;;
27436;SDS011;14886;51.586;6.722;2023-08-06T00:48:52;8.0;;;3.8;;
27436;SDS011;14886;51.586;6.722;2023-08-06T00:53:52;10.8;;;3.5;;
27436;SDS011;14886;51.586;6.722;2023-08-06T00:58:51;7.2;;;4.0;;
27436;SDS011;14886;51.586;6.722;2023-08-06T01:03:51;8.0;;;3.8;;
27436;SDS011;14886;51.586;6.722;2023-08-06T01:08:54;7.7;;;4.0;;
27436;SDS011;14886;51.586;6.722;2023-08-06T01:13:53;9.1;;;5.0;;
27436;SDS011;14886;51.586;6.722;2023-08-06T01:18:51;12.9;;;6.7;;
27436;SDS011;14886;51.586;6.722;2023-08-06T01:23:51;10.0;;;4.8;;
27436;SDS011;14886;51.586;6.722;2023-08-06T01:28:52;9.5;;;4.7;;
27436;SDS011;14886;51.586;6.722;2023-08-06T01:33:50;11.6;;;5.1;;
27436;SDS011;14886;51.586;6.722;2023-08-06T01:38:50;8.5;;;4.7;;
27436;SDS011;14886;51.586;6.722;2023-08-06T01:43:50;7.8;;;4.8;;
27436;SDS011;14886;51.586;6.722;2023-08-06T01:48:50;11.9;;;5.5;;
27436;SDS011;14886;51.586;6.722;2023-08-06T01:53:49;8.2;;;5.0;;
27436;SDS011;14886;51.586;6.722;2023-08-06T01:58:49;11.7;;;4.8;;
27436;SDS011;14886;51.586;6.722;2023-08-06T02:03:49;8.4;;;4.2;;
27436;SDS011;14886;51.586;6.722;2023-08-06T02:08:49;12.6;;;4.3;;
27436;SDS011;14886;51.586;6.722;2023-08-06T02:13:49;10.2;;;4.6;;
27436;SDS011;14886;51.586;6.722;2023-08-06T02:18:48;12.1;;;4.3;;
27436;SDS011;14886;51.586;6.722;2023-08-06T02:23:48;7.4;;;4.0;;
27436;SDS011;14886;51.586;6.722;2023-08-06T02:28:48;9.3;;;4.2;;
27436;SDS011;14886;51.586;6.722;2023-08-06T02:33:48;12.3;;;4.4;;
27436;SDS011;14886;51.586;6.722;2023-08-06T02:38:48;10.8;;;4.3;;
27436;SDS011;14886;51.586;6.722;2023-08-06T02:43:47;9.3;;;4.4;;
27436;SDS011;14886;51.586;6.722;2023-08-06T02:48:47;13.0;;;4.7;;
27436;SDS011;14886;51.586;6.722;2023-08-06T02:53:47;8.9;;;5.1;;
27436;SDS011;14886;51.586;6.722;2023-08-06T02:58:47;10.7;;;4.8;;
27436;SDS011;14886;51.586;6.722;2023-08-06T03:03:47;11.7;;;4.8;;
27436;SDS011;14886;51.586;6.722;2023-08-06T03:08:46;9.6;;;4.1;;
27436;SDS011;14886;51.586;6.722;2023-08-06T03:13:46;11.2;;;4.1;;
27436;SDS011;14886;51.586;6.722;2023-08-06T03:18:46;12.9;;;4.2;;
27436;SDS011;14886;51.586;6.722;2023-08-06T03:23:46;10.6;;;4.3;;
27436;SDS011;14886;51.586;6.722;2023-08-06T03:28:46;11.2;;;4.4;;
27436;SDS011;14886;51.586;6.722;2023-08-06T03:33:45;16.0;;;4.7;;
27436;SDS011;14886;51.586;6.722;2023-08-06T03:38:45;8.8;;;4.3;;
27436;SDS011;14886;51.586;6.722;2023-08-06T03:43:45;9.7;;;4.8;;
27436;SDS011;14886;51.586;6.722;2023-08-06T03:48:45;7.1;;;4.1;;
27436;SDS011;14886;51.586;6.722;2023-08-06T03:53:45;7.2;;;4.0;;
27436;SDS011;14886;51.586;6.722;2023-08-06T03:58:44;11.6;;;4.4;;
27436;SDS011;14886;51.586;6.722;2023-08-06T04:03:44;7.9;;;3.9;;
27436;SDS011;14886;51.586;6.722;2023-08-06T04:08:44;8.0;;;3.9;;
27436;SDS011;14886;51.586;6.722;2023-08-06T04:13:44;8.2;;;4.0;;
27436;SDS011;14886;51.586;6.722;2023-08-06T04:18:44;9.1;;;4.2;;
27436;SDS011;14886;51.586;6.722;2023-08-06T04:23:44;10.7;;;3.9;;
27436;SDS011;14886;51.586;6.722;2023-08-06T04:28:43;10.3;;;4.6;;
27436;SDS011;14886;51.586;6.722;2023-08-06T04:33:43;8.4;;;4.6;;
27436;SDS011;14886;51.586;6.722;2023-08-06T04:38:43;13.3;;;5.4;;
27436;SDS011;14886;51.586;6.722;2023-08-06T04:43:43;7.9;;;4.7;;
27436;SDS011;14886;51.586;6.722;2023-08-06T04:48:43;10.7;;;4.7;;
27436;SDS011;14886;51.586;6.722;2023-08-06T04:53:43;10.2;;;4.9;;
27436;SDS011;14886;51.586;6.722;2023-08-06T04:58:42;14.3;;;4.9;;
27436;SDS011;14886;51.586;6.722;2023-08-06T05:03:42;11.0;;;5.3;;
27436;SDS011;14886;51.586;6.722;2023-08-06T05:08:42;8.7;;;4.9;;
27436;SDS011;14886;51.586;6.722;2023-08-06T05:13:42;8.0;;;4.6;;
27436;SDS011;14886;51.586;6.722;2023-08-06T05:18:42;6.2;;;3.6;;
27436;SDS011;14886;51.586;6.722;2023-08-06T05:23:42;8.0;;;3.4;;
27436;SDS011;14886;51.586;6.722;2023-08-06T05:28:42;8.9;;;3.6;;
27436;SDS011;14886;51.586;6.722;2023-08-06T05:33:42;7.5;;;3.3;;
27436;SDS011;14886;51.586;6.722;2023-08-06T05:38:41;7.9;;;3.2;;
27436;SDS011;14886;51.586;6.722;2023-08-06T05:43:41;8.8;;;3.4;;
27436;SDS011;14886;51.586;6.722;2023-08-06T05:48:41;9.3;;;3.4;;
27436;SDS011;14886;51.586;6.722;2023-08-06T05:53:41;9.5;;;3.3;;
27436;SDS011;14886;51.586;6.722;2023-08-06T05:58:41;6.9;;;3.6;;
27436;SDS011;14886;51.586;6.722;2023-08-06T06:03:41;7.3;;;3.2;;
27436;SDS011;14886;51.586;6.722;2023-08-06T06:08:41;6.3;;;3.1;;
27436;SDS011;14886;51.586;6.722;2023-08-06T06:13:41;9.7;;;3.6;;
27436;SDS011;14886;51.586;6.722;2023-08-06T06:18:41;7.0;;;2.6;;
27436;SDS011;14886;51.586;6.722;2023-08-06T06:23:41;6.5;;;2.9;;
27436;SDS011;14886;51.586;6.722;2023-08-06T06:28:41;8.8;;;3.1;;
27436;SDS011;14886;51.586;6.722;2023-08-06T06:33:41;9.1;;;2.8;;
27436;SDS011;14886;51.586;6.722;2023-08-06T06:38:41;6.8;;;2.8;;
27436;SDS011;14886;51.586;6.722;2023-08-06T06:43:41;7.7;;;2.5;;
27436;SDS011;14886;51.586;6.722;2023-08-06T06:48:41;11.0;;;3.1;;
27436;SDS011;14886;51.586;6.722;2023-08-06T06:53:41;6.0;;;3.2;;
27436;SDS011;14886;51.586;6.722;2023-08-06T06:58:41;7.5;;;3.5;;
27436;SDS011;14886;51.586;6.722;2023-08-06T07:03:41;9.6;;;3.5;;
27436;SDS011;14886;51.586;6.722;2023-08-06T07:08:41;10.1;;;3.8;;
27436;SDS011;14886;51.586;6.722;2023-08-06T07:13:41;7.0;;;3.5;;
27436;SDS011;14886;51.586;6.722;2023-08-06T07:18:41;8.1;;;3.6;;
27436;SDS011;14886;51.586;6.722;2023-08-06T07:23:40;7.7;;;3.6;;
27436;SDS011;14886;51.586;6.722;2023-08-06T07:28:40;10.2;;;3.5;;
27436;SDS011;14886;51.586;6.722;2023-08-06T07:33:40;9.5;;;3.3;;
27436;SDS011;14886;51.586;6.722;2023-08-06T07:38:40;8.5;;;3.3;;
27436;SDS011;14886;51.586;6.722;2023-08-06T07:43:40;6.7;;;3.1;;
27436;SDS011;14886;51.586;6.722;2023-08-06T07:48:40;9.8;;;3.4;;
27436;SDS011;14886;51.586;6.722;2023-08-06T07:53:40;9.7;;;3.4;;
27436;SDS011;14886;51.586;6.722;2023-08-06T07:58:40;8.4;;;3.5;;
27436;SDS011;14886;51.586;6.722;2023-08-06T08:03:40;9.7;;;3.6;;
27436;SDS011;14886;51.586;6.722;2023-08-06T08:08:40;8.5;;;3.9;;
27436;SDS011;14886;51.586;6.722;2023-08-06T08:18:40;5.6;;;3.0;;
27436;SDS011;14886;51.586;6.722;2023-08-06T08:23:40;9.0;;;4.0;;
27436;SDS011;14886;51.586;6.722;2023-08-06T08:28:40;7.8;;;3.3;;
27436;SDS011;14886;51.586;6.722;2023-08-06T08:33:40;9.1;;;3.1;;
27436;SDS011;14886;51.586;6.722;2023-08-06T08:38:40;6.8;;;3.4;;
27436;SDS011;14886;51.586;6.722;2023-08-06T08:43:40;7.7;;;3.6;;
27436;SDS011;14886;51.586;6.722;2023-08-06T08:48:40;8.4;;;2.9;;
27436;SDS011;14886;51.586;6.722;2023-08-06T08:53:40;6.4;;;3.3;;
27436;SDS011;14886;51.586;6.722;2023-08-06T08:58:40;10.4;;;4.3;;
27436;SDS011;14886;51.586;6.722;2023-08-06T09:03:40;11.3;;;3.4;;
27436;SDS011;14886;51.586;6.722;2023-08-06T09:08:41;6.5;;;2.9;;
27436;SDS011;14886;51.586;6.722;2023-08-06T09:13:40;7.2;;;3.1;;
27436;SDS011;14886;51.586;6.722;2023-08-06T09:18:40;8.1;;;3.2;;
27436;SDS011;14886;51.586;6.722;2023-08-06T09:23:40;6.2;;;3.4;;
27436;SDS011;14886;51.586;6.722;2023-08-06T09:28:40;11.0;;;6.4;;
27436;SDS011;14886;51.586;6.722;2023-08-06T09:33:40;10.6;;;6.6;;
27436;SDS011;14886;51.586;6.722;2023-08-06T09:38:40;10.7;;;7.5;;
27436;SDS011;14886;51.586;6.722;2023-08-06T09:43:40;13.1;;;7.6;;
27436;SDS011;14886;51.586;6.722;2023-08-06T09:48:40;9.9;;;7.1;;
27436;SDS011;14886;51.586;6.722;2023-08-06T09:53:40;10.5;;;7.5;;
27436;SDS011;14886;51.586;6.722;2023-08-06T09:58:40;8.2;;;6.6;;
27436;SDS011;14886;51.586;6.722;2023-08-06T10:03:40;10.9;;;6.7;;
27436;SDS011;14886;51.586;6.722;2023-08-06T10:08:40;10.6;;;7.0;;
27436;SDS011;14886;51.586;6.722;2023-08-06T10:13:40;8.1;;;6.0;;
27436;SDS011;14886;51.586;6.722;2023-08-06T10:18:40;11.0;;;6.7;;
27436;SDS011;14886;51.586;6.722;2023-08-06T10:23:40;8.5;;;6.3;;
27436;SDS011;14886;51.586;6.722;2023-08-06T10:28:40;9.2;;;6.0;;
27436;SDS011;14886;51.586;6.722;2023-08-06T10:33:40;10.3;;;7.4;;
27436;SDS011;14886;51.586;6.722;2023-08-06T10:38:44;8.8;;;6.6;;
27436;SDS011;14886;51.586;6.722;2023-08-06T10:43:40;8.4;;;6.2;;
27436;SDS011;14886;51.586;6.722;2023-08-06T10:48:41;9.4;;;7.3;;
27436;SDS011;14886;51.586;6.722;2023-08-06T10:53:41;12.1;;;7.2;;
27436;SDS011;14886;51.586;6.722;2023-08-06T10:58:40;8.8;;;6.2;;
27436;SDS011;14886;51.586;6.722;2023-08-06T11:08:42;5.7;;;3.9;;
27436;SDS011;14886;51.586;6.722;2023-08-06T11:13:40;6.1;;;1.9;;
27436;SDS011;14886;51.586;6.722;2023-08-06T11:18:40;3.0;;;1.7;;
27436;SDS011;14886;51.586;6.722;2023-08-06T11:23:40;3.2;;;1.3;;
27436;SDS011;14886;51.586;6.722;2023-08-06T11:28:40;5.6;;;1.5;;
27436;SDS011;14886;51.586;6.722;2023-08-06T11:33:40;2.5;;;1.5;;
27436;SDS011;14886;51.586;6.722;2023-08-06T11:38:40;2.4;;;1.2;;
27436;SDS011;14886;51.586;6.722;2023-08-06T11:43:40;2.3;;;1.2;;
27436;SDS011;14886;51.586;6.722;2023-08-06T11:53:40;2.1;;;0.8;;
27436;SDS011;14886;51.586;6.722;2023-08-06T11:58:40;2.7;;;0.7;;
27436;SDS011;14886;51.586;6.722;2023-08-06T12:03:40;1.3;;;0.5;;
27436;SDS011;14886;51.586;6.722;2023-08-06T12:08:40;1.6;;;0.5;;
27436;SDS011;14886;51.586;6.722;2023-08-06T12:13:40;2.4;;;0.6;;
27436;SDS011;14886;51.586;6.722;2023-08-06T12:18:40;1.8;;;0.6;;
27436;SDS011;14886;51.586;6.722;2023-08-06T12:23:40;2.5;;;0.6;;
27436;SDS011;14886;51.586;6.722;2023-08-06T12:28:40;1.7;;;0.5;;
27436;SDS011;14886;51.586;6.722;2023-08-06T12:33:40;1.8;;;0.8;;
27436;SDS011;14886;51.586;6.722;2023-08-06T12:38:40;2.1;;;0.7;;
27436;SDS011;14886;51.586;6.722;2023-08-06T12:43:40;2.0;;;0.7;;
27436;SDS011;14886;51.586;6.722;2023-08-06T12:48:39;2.1;;;0.8;;
27436;SDS011;14886;51.586;6.722;2023-08-06T12:53:39;2.6;;;1.1;;
27436;SDS011;14886;51.586;6.722;2023-08-06T12:58:39;2.4;;;1.2;;
27436;SDS011;14886;51.586;6.722;2023-08-06T13:03:39;3.2;;;1.2;;
27436;SDS011;14886;51.586;6.722;2023-08-06T13:13:39;2.6;;;1.4;;
27436;SDS011;14886;51.586;6.722;2023-08-06T13:18:39;3.1;;;1.8;;
27436;SDS011;14886;51.586;6.722;2023-08-06T13:23:39;4.9;;;2.5;;
27436;SDS011;14886;51.586;6.722;2023-08-06T13:28:39;5.7;;;2.9;;
27436;SDS011;14886;51.586;6.722;2023-08-06T13:33:39;6.8;;;3.0;;
27436;SDS011;14886;51.586;6.722;2023-08-06T13:38:38;5.9;;;3.0;;
27436;SDS011;14886;51.586;6.722;2023-08-06T13:43:38;8.6;;;3.1;;
27436;SDS011;14886;51.586;6.722;2023-08-06T13:48:38;4.4;;;2.1;;
27436;SDS011;14886;51.586;6.722;2023-08-06T13:53:38;6.7;;;2.7;;
27436;SDS011;14886;51.586;6.722;2023-08-06T14:03:38;4.7;;;2.8;;
27436;SDS011;14886;51.586;6.722;2023-08-06T14:08:38;6.3;;;3.1;;
27436;SDS011;14886;51.586;6.722;2023-08-06T14:13:38;5.5;;;3.1;;
27436;SDS011;14886;51.586;6.722;2023-08-06T14:18:38;5.3;;;2.8;;
27436;SDS011;14886;51.586;6.722;2023-08-06T14:23:37;4.8;;;2.8;;
27436;SDS011;14886;51.586;6.722;2023-08-06T14:28:37;6.5;;;3.2;;
27436;SDS011;14886;51.586;6.722;2023-08-06T14:33:37;4.7;;;2.4;;
27436;SDS011;14886;51.586;6.722;2023-08-06T14:38:37;6.3;;;2.5;;
27436;SDS011;14886;51.586;6.722;2023-08-06T14:43:37;4.4;;;2.4;;
27436;SDS011;14886;51.586;6.722;2023-08-06T14:48:37;4.2;;;2.3;;
27436;SDS011;14886;51.586;6.722;2023-08-06T14:53:37;6.6;;;2.3;;
27436;SDS011;14886;51.586;6.722;2023-08-06T14:58:37;4.0;;;2.1;;
27436;SDS011;14886;51.586;6.722;2023-08-06T15:03:36;7.6;;;2.0;;
27436;SDS011;14886;51.586;6.722;2023-08-06T15:08:36;4.6;;;2.2;;
27436;SDS011;14886;51.586;6.722;2023-08-06T15:13:36;7.7;;;2.4;;
27436;SDS011;14886;51.586;6.722;2023-08-06T15:18:36;4.0;;;1.8;;
27436;SDS011;14886;51.586;6.722;2023-08-06T15:23:36;4.1;;;1.8;;
27436;SDS011;14886;51.586;6.722;2023-08-06T15:28:36;6.1;;;1.8;;
27436;SDS011;14886;51.586;6.722;2023-08-06T15:33:36;4.3;;;1.7;;
27436;SDS011;14886;51.586;6.722;2023-08-06T15:38:36;3.4;;;1.7;;
27436;SDS011;14886;51.586;6.722;2023-08-06T15:43:36;4.1;;;1.7;;
27436;SDS011;14886;51.586;6.722;2023-08-06T15:48:35;4.7;;;2.1;;
27436;SDS011;14886;51.586;6.722;2023-08-06T15:53:35;7.7;;;2.1;;
27436;SDS011;14886;51.586;6.722;2023-08-06T15:58:35;3.3;;;1.6;;
27436;SDS011;14886;51.586;6.722;2023-08-06T16:03:35;4.0;;;1.6;;
27436;SDS011;14886;51.586;6.722;2023-08-06T16:13:35;3.5;;;1.8;;
27436;SDS011;14886;51.586;6.722;2023-08-06T16:18:35;5.9;;;1.8;;
27436;SDS011;14886;51.586;6.722;2023-08-06T16:23:35;4.5;;;1.7;;
27436;SDS011;14886;51.586;6.722;2023-08-06T16:28:35;7.2;;;2.0;;
27436;SDS011;14886;51.586;6.722;2023-08-06T16:33:34;5.4;;;2.4;;
27436;SDS011;14886;51.586;6.722;2023-08-06T16:38:36;6.4;;;2.3;;
27436;SDS011;14886;51.586;6.722;2023-08-06T16:43:34;6.0;;;2.8;;
27436;SDS011;14886;51.586;6.722;2023-08-06T16:48:34;5.5;;;2.7;;
27436;SDS011;14886;51.586;6.722;2023-08-06T16:53:33;7.7;;;3.1;;
27436;SDS011;14886;51.586;6.722;2023-08-06T16:58:33;8.3;;;2.7;;
27436;SDS011;14886;51.586;6.722;2023-08-06T17:03:33;7.9;;;3.2;;
27436;SDS011;14886;51.586;6.722;2023-08-06T17:08:33;9.3;;;3.2;;
27436;SDS011;14886;51.586;6.722;2023-08-06T17:13:33;7.6;;;3.5;;
27436;SDS011;14886;51.586;6.722;2023-08-06T17:18:32;9.0;;;3.8;;
27436;SDS011;14886;51.586;6.722;2023-08-06T17:23:32;11.2;;;4.2;;
27436;SDS011;14886;51.586;6.722;2023-08-06T17:28:32;9.8;;;4.2;;
27436;SDS011;14886;51.586;6.722;2023-08-06T17:33:32;7.2;;;3.6;;
27436;SDS011;14886;51.586;6.722;2023-08-06T17:38:32;7.8;;;3.2;;
27436;SDS011;14886;51.586;6.722;2023-08-06T17:43:31;10.6;;;2.1;;
27436;SDS011;14886;51.586;6.722;2023-08-06T17:48:31;7.6;;;1.6;;
27436;SDS011;14886;51.586;6.722;2023-08-06T17:53:31;8.7;;;1.5;;
27436;SDS011;14886;51.586;6.722;2023-08-06T17:58:30;7.4;;;1.6;;
27436;SDS011;14886;51.586;6.722;2023-08-06T18:03:30;9.3;;;1.7;;
27436;SDS011;14886;51.586;6.722;2023-08-06T18:08:30;11.1;;;1.9;;
27436;SDS011;14886;51.586;6.722;2023-08-06T18:13:30;7.0;;;1.6;;
27436;SDS011;14886;51.586;6.722;2023-08-06T18:18:30;12.9;;;1.8;;
27436;SDS011;14886;51.586;6.722;2023-08-06T18:23:29;13.8;;;2.0;;
27436;SDS011;14886;51.586;6.722;2023-08-06T18:28:29;10.3;;;1.7;;
27436;SDS011;14886;51.586;6.722;2023-08-06T18:33:29;13.4;;;1.8;;
27436;SDS011;14886;51.586;6.722;2023-08-06T18:38:29;13.5;;;2.3;;
27436;SDS011;14886;51.586;6.722;2023-08-06T18:43:28;10.7;;;1.7;;
27436;SDS011;14886;51.586;6.722;2023-08-06T18:48:28;10.3;;;1.7;;
27436;SDS011;14886;51.586;6.722;2023-08-06T18:53:28;6.3;;;1.6;;
27436;SDS011;14886;51.586;6.722;2023-08-06T18:58:28;9.2;;;1.7;;
27436;SDS011;14886;51.586;6.722;2023-08-06T19:03:27;11.9;;;1.8;;
27436;SDS011;14886;51.586;6.722;2023-08-06T19:08:27;9.3;;;1.6;;
27436;SDS011;14886;51.586;6.722;2023-08-06T19:13:27;8.9;;;1.6;;
27436;SDS011;14886;51.586;6.722;2023-08-06T19:18:27;12.4;;;1.7;;
27436;SDS011;14886;51.586;6.722;2023-08-06T19:23:26;13.1;;;1.7;;
27436;SDS011;14886;51.586;6.722;2023-08-06T19:28:26;9.0;;;1.6;;
27436;SDS011;14886;51.586;6.722;2023-08-06T19:33:26;10.3;;;1.7;;
27436;SDS011;14886;51.586;6.722;2023-08-06T19:38:26;7.6;;;1.3;;
27436;SDS011;14886;51.586;6.722;2023-08-06T19:43:25;9.5;;;1.9;;
27436;SDS011;14886;51.586;6.722;2023-08-06T19:48:25;11.6;;;1.9;;
27436;SDS011;14886;51.586;6.722;2023-08-06T19:53:25;12.3;;;2.3;;
27436;SDS011;14886;51.586;6.722;2023-08-06T19:58:25;11.9;;;1.7;;
27436;SDS011;14886;51.586;6.722;2023-08-06T20:03:25;9.3;;;1.5;;
27436;SDS011;14886;51.586;6.722;2023-08-06T20:08:24;13.0;;;1.9;;
27436;SDS011;14886;51.586;6.722;2023-08-06T20:13:24;12.9;;;1.7;;
27436;SDS011;14886;51.586;6.722;2023-08-06T20:18:23;13.2;;;1.9;;
27436;SDS011;14886;51.586;6.722;2023-08-06T20:23:23;15.2;;;1.9;;
27436;SDS011;14886;51.586;6.722;2023-08-06T20:28:23;13.4;;;2.4;;
27436;SDS011;14886;51.586;6.722;2023-08-06T20:33:23;15.0;;;2.0;;
27436;SDS011;14886;51.586;6.722;2023-08-06T20:38:22;13.3;;;1.8;;
27436;SDS011;14886;51.586;6.722;2023-08-06T20:43:22;17.6;;;1.9;;
27436;SDS011;14886;51.586;6.722;2023-08-06T20:48:22;11.3;;;1.6;;
27436;SDS011;14886;51.586;6.722;2023-08-06T20:53:22;12.5;;;1.6;;
27436;SDS011;14886;51.586;6.722;2023-08-06T20:58:21;11.4;;;1.6;;
27436;SDS011;14886;51.586;6.722;2023-08-06T21:03:21;10.8;;;1.9;;
27436;SDS011;14886;51.586;6.722;2023-08-06T21:08:21;8.2;;;1.6;;
27436;SDS011;14886;51.586;6.722;2023-08-06T21:13:21;10.3;;;1.7;;
27436;SDS011;14886;51.586;6.722;2023-08-06T21:18:20;6.3;;;1.5;;
27436;SDS011;14886;51.586;6.722;2023-08-06T21:23:20;8.9;;;1.7;;
27436;SDS011;14886;51.586;6.722;2023-08-06T21:28:20;9.9;;;1.7;;
27436;SDS011;14886;51.586;6.722;2023-08-06T21:33:19;11.4;;;1.8;;
27436;SDS011;14886;51.586;6.722;2023-08-06T21:38:19;9.0;;;1.8;;
27436;SDS011;14886;51.586;6.722;2023-08-06T21:43:19;8.6;;;1.7;;
27436;SDS011;14886;51.586;6.722;2023-08-06T21:48:19;10.2;;;1.9;;
27436;SDS011;14886;51.586;6.722;2023-08-06T21:53:18;9.5;;;1.7;;
27436;SDS011;14886;51.586;6.722;2023-08-06T21:58:18;9.6;;;1.7;;
27436;SDS011;14886;51.586;6.722;2023-08-06T22:03:19;15.8;;;2.1;;
27436;SDS011;14886;51.586;6.722;2023-08-06T22:08:18;10.8;;;2.1;;
27436;SDS011;14886;51.586;6.722;2023-08-06T22:13:17;13.2;;;2.5;;
27436;SDS011;14886;51.586;6.722;2023-08-06T22:18:17;22.1;;;3.9;;
27436;SDS011;14886;51.586;6.722;2023-08-06T22:23:17;24.0;;;2.8;;
27436;SDS011;14886;51.586;6.722;2023-08-06T22:28:16;15.3;;;3.1;;
27436;SDS011;14886;51.586;6.722;2023-08-06T22:33:16;17.4;;;2.8;;
27436;SDS011;14886;51.586;6.722;2023-08-06T22:38:16;17.2;;;3.0;;
27436;SDS011;14886;51.586;6.722;2023-08-06T22:43:16;15.1;;;2.6;;
27436;SDS011;14886;51.586;6.722;2023-08-06T22:48:15;24.1;;;3.1;;
27436;SDS011;14886;51.586;6.722;2023-08-06T22:53:15;23.3;;;3.5;;
27436;SDS011;14886;51.586;6.722;2023-08-06T22:58:15;18.0;;;2.9;;
27436;SDS011;14886;51.586;6.722;2023-08-06T23:03:14;13.4;;;2.9;;
27436;SDS011;14886;51.586;6.722;2023-08-06T23:08:14;15.6;;;3.0;;
27436;SDS011;14886;51.586;6.722;2023-08-06T23:13:14;21.0;;;2.9;;
27436;SDS011;14886;51.586;6.722;2023-08-06T23:18:14;18.3;;;2.7;;
27436;SDS011;14886;51.586;6.722;2023-08-06T23:23:13;11.0;;;2.4;;
27436;SDS011;14886;51.586;6.722;2023-08-06T23:28:13;13.6;;;2.5;;
27436;SDS011;14886;51.586;6.722;2023-08-06T23:33:13;16.7;;;2.8;;
27436;SDS011;14886;51.586;6.722;2023-08-06T23:38:12;13.5;;;3.0;;
27436;SDS011;14886;51.586;6.722;2023-08-06T23:43:12;14.9;;;3.1;;
27436;SDS011;14886;51.586;6.722;2023-08-06T23:53:12;21.0;;;3.9;;
27436;SDS011;14886;51.586;6.722;2023-08-06T23:58:11;18.5;;;3.3;;
